createdAt,value
2023-04-10T00:01:15.491Z,4.57
2023-04-10T00:03:52.126Z,4.59
2023-04-10T00:06:21.649Z,4.57
2023-04-10T00:08:50.809Z,4.50
2023-04-10T00:11:19.541Z,4.45
2023-04-10T00:13:46.376Z,4.45
2023-04-10T00:16:13.168Z,4.37
2023-04-10T00:18:50.194Z,4.35
2023-04-10T00:21:21.965Z,4.36
2023-04-10T00:23:51.048Z,4.35
2023-04-10T00:26:20.880Z,4.38
2023-04-10T00:28:58.010Z,4.43
2023-04-10T00:31:27.179Z,4.40
2023-04-10T00:33:54.331Z,4.37
2023-04-10T00:36:21.551Z,4.35
2023-04-10T00:38:50.529Z,4.41
2023-04-10T00:41:20.340Z,4.37
2023-04-10T00:43:55.444Z,4.42
2023-04-10T00:46:33.222Z,4.46
2023-04-10T00:49:07.799Z,4.42
2023-04-10T00:54:18.782Z,4.50
2023-04-10T00:56:47.039Z,4.48
2023-04-10T00:59:15.743Z,4.47
2023-04-10T01:01:46.485Z,4.54
2023-04-10T01:04:14.628Z,4.44
2023-04-10T01:07:36.150Z,4.41
2023-04-10T01:10:29.755Z,4.44
2023-04-10T01:13:27.936Z,4.40
2023-04-10T01:16:46.582Z,4.38
2023-04-10T01:20:01.160Z,4.35
2023-04-10T01:23:04.515Z,4.36
2023-04-10T01:26:09.601Z,4.35
2023-04-10T01:29:14.228Z,4.30
2023-04-10T01:32:02.578Z,4.30
2023-04-10T01:34:54.051Z,4.26
2023-04-10T01:37:27.807Z,4.25
2023-04-10T01:40:11.369Z,4.22
2023-04-10T01:43:00.553Z,4.23
2023-04-10T01:45:32.058Z,4.27
2023-04-10T01:48:00.258Z,4.27
2023-04-10T01:50:30.249Z,4.28
2023-04-10T01:53:02.102Z,4.30
2023-04-10T01:55:33.559Z,4.25
2023-04-10T01:58:01.735Z,4.28
2023-04-10T02:00:46.067Z,4.31
2023-04-10T02:03:13.185Z,4.27
2023-04-10T02:06:02.672Z,4.22
2023-04-10T02:09:12.648Z,4.19
2023-04-10T02:12:43.587Z,4.17
2023-04-10T02:15:25.827Z,4.20
2023-04-10T02:18:04.052Z,4.15
2023-04-10T02:20:52.750Z,4.16
2023-04-10T02:23:32.410Z,4.19
2023-04-10T02:26:10.621Z,4.14
2023-04-10T02:28:49.543Z,4.14
2023-04-10T02:31:21.956Z,4.14
2023-04-10T02:34:00.525Z,4.11
2023-04-10T02:36:36.448Z,4.11
2023-04-10T02:39:03.880Z,4.07
2023-04-10T02:41:30.936Z,4.03
2023-04-10T02:43:58.462Z,4.02
2023-04-10T02:46:25.744Z,4.01
2023-04-10T02:48:53.667Z,4.08
2023-04-10T02:51:20.422Z,4.05
2023-04-10T02:53:48.761Z,4.03
2023-04-10T02:56:25.778Z,4.05
2023-04-10T02:58:52.888Z,4.07
2023-04-10T03:01:22.284Z,4.09
2023-04-10T03:03:49.347Z,4.12
2023-04-10T03:06:19.209Z,4.13
2023-04-10T03:08:46.157Z,4.10
2023-04-10T03:11:15.808Z,4.13
2023-04-10T03:13:51.659Z,4.16
2023-04-10T03:16:18.916Z,4.10
2023-04-10T03:18:46.741Z,4.11
2023-04-10T03:21:13.465Z,4.02
2023-04-10T03:23:43.375Z,4.09
2023-04-10T03:26:13.165Z,4.17
2023-04-10T03:28:44.440Z,4.15
2023-04-10T03:31:14.405Z,4.09
2023-04-10T03:33:46.248Z,4.08
2023-04-10T03:36:18.889Z,3.91
2023-04-10T03:38:45.692Z,3.90
2023-04-10T03:41:25.426Z,3.94
2023-04-10T03:43:55.749Z,3.97
2023-04-10T03:46:27.084Z,3.94
2023-04-10T03:49:02.268Z,3.93
2023-04-10T03:51:31.992Z,4.04
2023-04-10T03:53:58.849Z,4.09
2023-04-10T03:56:25.675Z,4.06
2023-04-10T03:58:52.514Z,4.01
2023-04-10T04:01:19.512Z,4.03
2023-04-10T04:03:49.420Z,3.96
2023-04-10T04:06:16.217Z,3.96
2023-04-10T04:08:46.106Z,4.05
2023-04-10T04:11:15.404Z,4.05
2023-04-10T04:13:50.987Z,4.16
2023-04-10T04:16:17.921Z,4.14
2023-04-10T04:18:44.944Z,4.14
2023-04-10T04:21:17.701Z,4.18
2023-04-10T04:23:44.583Z,4.17
2023-04-10T04:26:14.501Z,4.20
2023-04-10T04:28:57.502Z,4.17
2023-04-10T04:31:25.229Z,4.16
2023-04-10T04:33:52.257Z,4.15
2023-04-10T04:36:21.695Z,4.18
2023-04-10T04:38:50.206Z,4.27
2023-04-10T04:41:20.645Z,4.30
2023-04-10T06:39:49.961Z,8.56
2023-04-10T06:42:28.508Z,8.66
2023-04-10T06:44:55.641Z,8.51
2023-04-10T06:47:25.259Z,8.56
2023-04-10T06:49:52.082Z,8.61
2023-04-10T06:52:21.999Z,8.49
2023-04-10T06:54:48.771Z,8.53
2023-04-10T06:57:19.409Z,8.57
2023-04-10T06:59:49.094Z,8.47
2023-04-10T07:02:21.108Z,8.24
2023-04-10T07:04:54.345Z,8.49
2023-04-10T07:07:24.303Z,8.46
2023-04-10T07:09:51.027Z,8.49
2023-04-10T07:12:31.435Z,8.68
2023-04-10T07:15:01.517Z,8.95
2023-04-10T07:17:28.740Z,9.04
2023-04-10T07:19:58.687Z,9.18
2023-04-10T07:22:28.835Z,9.42
2023-04-10T07:24:57.502Z,9.70
2023-04-10T07:27:25.046Z,9.90
2023-04-10T07:29:56.806Z,9.98
2023-04-10T07:32:47.746Z,9.84
2023-04-10T07:35:23.638Z,9.88
2023-04-10T07:37:53.488Z,9.80
2023-04-10T07:40:33.689Z,9.84
2023-04-10T07:43:04.436Z,10.02
2023-04-10T07:45:33.100Z,10.30
2023-04-10T07:48:07.908Z,10.40
2023-04-10T07:50:36.420Z,10.70
2023-04-10T07:53:11.594Z,11.13
2023-04-10T07:56:03.210Z,11.17
2023-04-10T07:58:33.222Z,11.49
2023-04-10T08:01:03.265Z,11.56
2023-04-10T08:03:30.352Z,11.44
2023-04-10T08:05:57.028Z,11.48
2023-04-10T08:08:28.146Z,11.11
2023-04-10T08:10:55.388Z,11.77
2023-04-10T08:13:29.936Z,11.85
2023-04-10T08:16:15.664Z,11.95
2023-04-10T08:18:48.023Z,12.12
2023-04-10T08:21:15.054Z,11.92
2023-04-10T08:23:46.317Z,12.61
2023-04-10T08:26:14.177Z,12.79
2023-04-10T08:29:01.252Z,13.12
2023-04-10T08:31:40.390Z,13.15
2023-04-10T08:34:12.350Z,13.29
2023-04-10T08:36:45.829Z,13.86
2023-04-10T08:39:36.355Z,14.10
2023-04-10T08:42:10.036Z,13.68
2023-04-10T08:44:46.425Z,13.53
2023-04-10T08:47:45.441Z,13.37
2023-04-10T08:50:29.543Z,14.12
2023-04-10T08:53:10.902Z,14.29
2023-04-10T08:55:46.131Z,13.74
2023-04-10T08:58:13.869Z,14.24
2023-04-10T09:00:43.926Z,13.91
2023-04-10T09:03:14.262Z,14.12
2023-04-10T09:05:47.616Z,14.18
2023-04-10T09:08:15.654Z,14.03
2023-04-10T09:11:08.326Z,14.33
2023-04-10T09:13:49.320Z,14.15
2023-04-10T09:16:35.031Z,14.29
2023-04-10T09:19:06.379Z,14.62
2023-04-10T09:21:34.460Z,14.40
2023-04-10T09:24:01.635Z,14.61
2023-04-10T09:26:34.863Z,14.51
2023-04-10T09:29:12.480Z,14.69
2023-04-10T09:31:43.255Z,14.97
2023-04-10T09:34:31.886Z,15.37
2023-04-10T09:37:04.708Z,15.40
2023-04-10T09:39:43.404Z,15.61
2023-04-10T09:42:14.864Z,15.80
2023-04-10T09:44:45.334Z,15.92
2023-04-10T09:47:15.047Z,16.23
2023-04-10T09:50:08.584Z,16.65
2023-04-10T09:52:41.541Z,16.70
2023-04-10T09:55:17.191Z,16.37
2023-04-10T09:57:58.321Z,15.96
2023-04-10T10:00:28.501Z,16.71
2023-04-10T10:03:25.906Z,17.10
2023-04-10T10:05:58.430Z,16.17
2023-04-10T10:08:32.039Z,17.02
2023-04-10T10:11:10.237Z,17.18
2023-04-10T10:13:54.131Z,16.81
2023-04-10T10:16:45.019Z,16.80
2023-04-10T10:19:32.543Z,17.18
2023-04-10T10:22:13.788Z,17.80
2023-04-10T10:24:47.768Z,17.89
2023-04-10T10:27:25.161Z,17.99
2023-04-10T10:29:56.859Z,16.90
2023-04-10T10:32:42.735Z,17.16
2023-04-10T10:35:29.536Z,17.23
2023-04-10T10:38:02.945Z,17.79
2023-04-10T10:41:21.406Z,17.31
2023-04-10T10:44:37.472Z,17.24
2023-04-10T10:47:45.350Z,17.54
2023-04-10T10:50:22.777Z,17.60
2023-04-10T10:53:08.860Z,17.54
2023-04-10T10:55:36.598Z,17.49
2023-04-10T10:58:09.352Z,17.64
2023-04-10T11:03:52.953Z,17.56
2023-04-10T11:06:58.289Z,17.77
2023-04-10T11:09:53.161Z,18.19
2023-04-10T11:12:30.399Z,18.74
2023-04-10T11:15:09.553Z,18.82
2023-04-10T11:17:56.144Z,17.87
2023-04-10T11:20:56.950Z,18.22
2023-04-10T11:23:32.968Z,18.89
2023-04-10T11:25:59.881Z,18.55
2023-04-10T11:37:32.426Z,18.08
2023-04-10T12:42:55.062Z,18.84
2023-04-10T12:45:45.615Z,18.72
2023-04-10T12:48:26.709Z,19.27
2023-04-10T12:50:59.253Z,19.60
2023-04-10T12:53:32.958Z,19.89
2023-04-10T12:56:08.919Z,19.03
2023-04-10T12:58:35.639Z,18.38
2023-04-10T13:01:14.143Z,18.56
2023-04-10T13:03:49.056Z,18.96
2023-04-10T13:06:22.117Z,19.30
2023-04-10T13:08:55.331Z,19.28
2023-04-10T13:11:23.168Z,18.73
2023-04-10T13:13:50.154Z,18.61
2023-04-10T13:16:17.283Z,17.75
2023-04-10T13:18:51.190Z,18.15
2023-04-10T13:46:27.367Z,19.28
2023-04-10T15:09:38.865Z,17.06
2023-04-10T15:12:08.824Z,16.95
2023-04-10T15:14:35.647Z,17.04
2023-04-10T15:17:17.393Z,17.17
2023-04-10T15:19:44.238Z,16.75
2023-04-10T15:22:12.939Z,17.16
2023-04-10T15:30:08.558Z,16.76
2023-04-10T15:32:41.243Z,16.67
2023-04-10T16:30:02.568Z,15.94
2023-04-10T16:32:31.559Z,15.81
2023-04-10T16:34:59.078Z,15.76
2023-04-10T16:48:43.960Z,15.33
2023-04-10T17:13:26.009Z,14.61
2023-04-10T17:21:55.892Z,14.45
2023-04-10T17:24:31.602Z,14.33
2023-04-10T17:27:14.353Z,14.28
2023-04-10T17:32:36.738Z,14.13
2023-04-10T18:16:30.997Z,13.72
2023-04-10T18:19:01.096Z,13.65
2023-04-10T18:21:34.540Z,13.63
2023-04-10T18:24:01.461Z,13.60
2023-04-10T18:37:31.749Z,13.47
2023-04-10T18:40:09.872Z,13.40
2023-04-10T18:42:48.438Z,13.39
2023-04-10T18:45:22.045Z,13.36
2023-04-10T18:47:51.650Z,13.31
2023-04-10T18:58:42.153Z,13.25
2023-04-10T19:23:34.279Z,13.21
2023-04-10T19:26:04.143Z,13.15
2023-04-10T19:28:30.998Z,13.12
2023-04-10T20:13:12.231Z,12.82
2023-04-10T20:51:42.612Z,12.47
2023-04-10T20:59:33.095Z,12.38
2023-04-10T21:13:08.114Z,12.28
2023-04-10T21:59:34.919Z,12.17
2023-04-10T22:02:01.627Z,12.29
2023-04-10T22:59:38.278Z,11.34
2023-04-10T23:02:07.765Z,11.17
2023-04-10T23:04:35.135Z,10.99
2023-04-10T23:07:01.887Z,10.82
2023-04-10T23:09:31.835Z,10.65
2023-04-10T23:11:58.532Z,10.38
2023-04-10T23:14:25.387Z,10.11
2023-04-10T23:16:52.316Z,9.85
2023-04-10T23:19:22.360Z,9.61
2023-04-10T23:21:49.381Z,9.41
2023-04-10T23:24:16.379Z,9.27
2023-04-10T23:26:48.297Z,9.14
2023-04-10T23:29:15.296Z,9.01
2023-04-10T23:31:47.322Z,8.92
2023-04-10T23:34:18.861Z,8.86
2023-04-10T23:36:50.144Z,8.80
2023-04-10T23:39:16.986Z,8.72
2023-04-10T23:41:46.252Z,8.72
2023-04-10T23:44:12.975Z,8.70
2023-04-10T23:46:47.261Z,8.72
2023-04-10T23:49:13.954Z,8.71
2023-04-10T23:51:59.874Z,8.66
2023-04-10T23:54:27.132Z,8.61
